الصفحة الرئيسية
METAR-TAF:

METAR-TAF

مطار :

تارانتو, إيطاليا

دائرة عرض: 40-31N, خط طول: 017-24E, ارتفاع: 64 متر

مراقبة الطقس الحالي

تاريخ ووقت الإصدار 1ساعة و 26 دقيقة قبل الساعة 17:50UTC
ريح 5 عقدة من الشرق
درجة الحرارة 20°درجة مئوية
الرطوبة 53%
ضغط 1016 hPa
الرؤية 10 كم أو أكثر
الغيوم لا تقل 1500 م ولا وجود لمزنة ركامية السحاب الأسود

METAR: LIBG 291750Z 09005KT CAVOK 20/10 Q1016

زمن: 21:16 (19:16 UTC)

توقعات

تاريخ ووقت الإصدار 5ساعات و 16 دقيقة قبل الساعة 14:00UTC
التوقعات صالحة من29 الساعة 15 UTC إلى 29 الساعة 24 UTC
ريح 10 عقدة من الشمال/الشمال الغربي
الرؤية 10 كم أو أكثر
غيوم متفرقة على ارتفاع 3000 قدم

TAF: LIBG 291400Z 2915/2924 34010KT 9999 SCT030

أرصاد الطقس والتوقعات من أكثر من 4000 مطار (تقارير الطقس للمطار METAR والتنبؤ بالطقس بالمطارTAF).

المحطات المتاحة هي النقط الصفراء والحمراء على الخريطة.

حرك المؤشر فوق النقطة لمعرفة اسم المحطة.

ثم انقر لمعرفة أرصاد وتوقعات الطقس.

لتغيير الخارطة: اضغط على الأزرار الخضراء مع رمز الصليب الأسود للتكبير. على الزر الأخضر مع شرطة للتصغير، أو على الأسهم الخضراء للخرائط المجاورة.


METAR-TAF: